sensor_id;sensor_type;location;lat;lon;timestamp;pressure;altitude;pressure_sealevel;temperature;humidity
1029;BME280;503;48.120;11.488;2022-07-05T00:02:15;95677.91;;;22.11;78.36
1029;BME280;503;48.120;11.488;2022-07-05T00:04:41;95682.16;;;22.12;78.63
1029;BME280;503;48.120;11.488;2022-07-05T00:07:06;95674.38;;;22.11;78.41
1029;BME280;503;48.120;11.488;2022-07-05T00:09:53;95680.81;;;22.02;78.14
1029;BME280;503;48.120;11.488;2022-07-05T00:12:21;95680.22;;;21.90;78.72
1029;BME280;503;48.120;11.488;2022-07-05T00:14:47;95679.41;;;21.86;79.11
1029;BME280;503;48.120;11.488;2022-07-05T00:17:13;95685.50;;;21.56;77.00
1029;BME280;503;48.120;11.488;2022-07-05T00:19:39;95688.72;;;20.81;78.24
1029;BME280;503;48.120;11.488;2022-07-05T00:22:04;95686.94;;;20.34;80.67
1029;BME280;503;48.120;11.488;2022-07-05T00:24:30;95688.75;;;19.94;82.64
1029;BME280;503;48.120;11.488;2022-07-05T00:26:55;95687.06;;;20.41;82.63
1029;BME280;503;48.120;11.488;2022-07-05T00:29:21;95687.44;;;20.74;82.55
1029;BME280;503;48.120;11.488;2022-07-05T00:31:47;95684.50;;;21.02;82.63
1029;BME280;503;48.120;11.488;2022-07-05T00:34:12;95676.72;;;21.20;82.34
1029;BME280;503;48.120;11.488;2022-07-05T00:36:38;95671.16;;;21.33;81.90
1029;BME280;503;48.120;11.488;2022-07-05T00:39:05;95662.03;;;21.41;81.90
1029;BME280;503;48.120;11.488;2022-07-05T00:41:31;95654.78;;;21.45;81.87
1029;BME280;503;48.120;11.488;2022-07-05T00:43:59;95654.03;;;21.48;81.81
1029;BME280;503;48.120;11.488;2022-07-05T00:46:26;95654.09;;;21.51;81.63
1029;BME280;503;48.120;11.488;2022-07-05T00:48:52;95646.38;;;21.53;81.39
1029;BME280;503;48.120;11.488;2022-07-05T00:51:18;95643.28;;;21.51;81.10
1029;BME280;503;48.120;11.488;2022-07-05T00:53:44;95634.72;;;21.49;81.31
1029;BME280;503;48.120;11.488;2022-07-05T00:56:11;95636.31;;;21.50;81.16
1029;BME280;503;48.120;11.488;2022-07-05T00:58:37;95638.69;;;21.56;81.14
1029;BME280;503;48.120;11.488;2022-07-05T01:01:04;95627.34;;;21.46;80.76
1029;BME280;503;48.120;11.488;2022-07-05T01:03:30;95634.78;;;21.30;80.81
1029;BME280;503;48.120;11.488;2022-07-05T01:05:55;95637.53;;;21.34;80.92
1029;BME280;503;48.120;11.488;2022-07-05T01:08:22;95640.38;;;21.41;80.90
1029;BME280;503;48.120;11.488;2022-07-05T01:10:49;95645.84;;;21.44;80.69
1029;BME280;503;48.120;11.488;2022-07-05T01:13:14;95645.31;;;20.19;80.63
1029;BME280;503;48.120;11.488;2022-07-05T01:15:40;95667.22;;;19.98;81.15
1029;BME280;503;48.120;11.488;2022-07-05T01:18:06;95655.56;;;19.94;82.52
1029;BME280;503;48.120;11.488;2022-07-05T01:20:32;95665.41;;;19.70;83.08
1029;BME280;503;48.120;11.488;2022-07-05T01:22:59;95660.19;;;19.46;84.24
1029;BME280;503;48.120;11.488;2022-07-05T01:25:28;95654.06;;;19.33;85.54
1029;BME280;503;48.120;11.488;2022-07-05T01:27:54;95664.81;;;19.02;86.59
1029;BME280;503;48.120;11.488;2022-07-05T01:30:20;95651.00;;;19.03;86.03
1029;BME280;503;48.120;11.488;2022-07-05T01:32:46;95629.53;;;19.54;85.42
1029;BME280;503;48.120;11.488;2022-07-05T01:35:12;95627.88;;;20.16;83.86
1029;BME280;503;48.120;11.488;2022-07-05T01:37:39;95644.38;;;20.46;83.00
1029;BME280;503;48.120;11.488;2022-07-05T01:40:05;95630.78;;;20.62;82.35
1029;BME280;503;48.120;11.488;2022-07-05T01:42:31;95644.38;;;20.85;82.01
1029;BME280;503;48.120;11.488;2022-07-05T01:44:56;95645.00;;;20.40;81.30
1029;BME280;503;48.120;11.488;2022-07-05T01:47:22;95649.53;;;20.36;81.07
1029;BME280;503;48.120;11.488;2022-07-05T01:49:52;95647.81;;;20.63;81.34
1029;BME280;503;48.120;11.488;2022-07-05T01:52:21;95633.22;;;20.67;81.09
1029;BME280;503;48.120;11.488;2022-07-05T01:54:47;95645.44;;;20.81;80.83
1029;BME280;503;48.120;11.488;2022-07-05T01:57:12;95631.84;;;20.77;81.35
1029;BME280;503;48.120;11.488;2022-07-05T01:59:38;95642.38;;;20.82;81.41
1029;BME280;503;48.120;11.488;2022-07-05T02:02:04;95631.28;;;20.87;81.13
1029;BME280;503;48.120;11.488;2022-07-05T02:04:33;95616.63;;;20.88;81.08
1029;BME280;503;48.120;11.488;2022-07-05T02:06:58;95629.06;;;20.93;80.97
1029;BME280;503;48.120;11.488;2022-07-05T02:09:23;95637.94;;;20.93;80.70
1029;BME280;503;48.120;11.488;2022-07-05T02:11:49;95629.72;;;20.86;80.73
1029;BME280;503;48.120;11.488;2022-07-05T02:14:14;95647.56;;;20.91;80.56
1029;BME280;503;48.120;11.488;2022-07-05T02:16:40;95646.00;;;20.90;80.69
1029;BME280;503;48.120;11.488;2022-07-05T02:19:05;95647.50;;;20.87;80.91
1029;BME280;503;48.120;11.488;2022-07-05T02:21:31;95640.66;;;20.93;80.71
1029;BME280;503;48.120;11.488;2022-07-05T02:23:56;95642.94;;;20.91;80.76
1029;BME280;503;48.120;11.488;2022-07-05T02:26:21;95643.72;;;20.92;80.60
1029;BME280;503;48.120;11.488;2022-07-05T02:28:47;95638.81;;;20.97;80.63
1029;BME280;503;48.120;11.488;2022-07-05T02:31:13;95637.38;;;21.03;80.56
1029;BME280;503;48.120;11.488;2022-07-05T02:33:38;95639.66;;;21.01;80.33
1029;BME280;503;48.120;11.488;2022-07-05T02:36:11;95655.22;;;21.08;80.33
1029;BME280;503;48.120;11.488;2022-07-05T02:38:37;95647.84;;;21.05;80.32
1029;BME280;503;48.120;11.488;2022-07-05T02:41:08;95646.59;;;20.99;80.06
1029;BME280;503;48.120;11.488;2022-07-05T02:43:34;95640.25;;;20.91;80.19
1029;BME280;503;48.120;11.488;2022-07-05T02:46:02;95654.53;;;20.92;80.10
1029;BME280;503;48.120;11.488;2022-07-05T02:48:28;95649.09;;;20.88;80.68
1029;BME280;503;48.120;11.488;2022-07-05T02:50:53;95641.25;;;20.83;80.89
1029;BME280;503;48.120;11.488;2022-07-05T02:53:19;95644.47;;;20.89;80.67
1029;BME280;503;48.120;11.488;2022-07-05T02:55:44;95646.91;;;20.97;80.89
1029;BME280;503;48.120;11.488;2022-07-05T02:58:09;95646.13;;;20.97;80.48
1029;BME280;503;48.120;11.488;2022-07-05T03:00:35;95653.75;;;21.11;80.15
1029;BME280;503;48.120;11.488;2022-07-05T03:03:00;95650.38;;;21.17;80.14
1029;BME280;503;48.120;11.488;2022-07-05T03:05:26;95649.97;;;21.15;80.17
1029;BME280;503;48.120;11.488;2022-07-05T03:07:51;95647.38;;;21.22;80.07
1029;BME280;503;48.120;11.488;2022-07-05T03:10:16;95650.09;;;21.22;80.20
1029;BME280;503;48.120;11.488;2022-07-05T03:12:42;95649.66;;;21.20;80.14
1029;BME280;503;48.120;11.488;2022-07-05T03:15:07;95650.53;;;21.24;79.86
1029;BME280;503;48.120;11.488;2022-07-05T03:17:33;95657.53;;;21.29;79.96
1029;BME280;503;48.120;11.488;2022-07-05T03:19:58;95654.72;;;21.22;79.73
1029;BME280;503;48.120;11.488;2022-07-05T03:22:23;95633.75;;;20.96;79.52
1029;BME280;503;48.120;11.488;2022-07-05T03:24:49;95648.81;;;21.16;79.68
1029;BME280;503;48.120;11.488;2022-07-05T03:27:14;95662.03;;;21.21;79.42
1029;BME280;503;48.120;11.488;2022-07-05T03:29:39;95662.63;;;21.11;78.96
1029;BME280;503;48.120;11.488;2022-07-05T03:32:05;95655.88;;;21.01;78.96
1029;BME280;503;48.120;11.488;2022-07-05T03:34:31;95660.88;;;20.99;78.63
1029;BME280;503;48.120;11.488;2022-07-05T03:36:56;95655.03;;;20.97;78.65
1029;BME280;503;48.120;11.488;2022-07-05T03:39:21;95660.44;;;20.97;78.47
1029;BME280;503;48.120;11.488;2022-07-05T03:41:47;95672.28;;;20.89;78.77
1029;BME280;503;48.120;11.488;2022-07-05T03:44:12;95672.19;;;20.86;78.86
1029;BME280;503;48.120;11.488;2022-07-05T03:46:37;95667.19;;;20.88;78.53
1029;BME280;503;48.120;11.488;2022-07-05T03:49:02;95664.00;;;20.82;78.69
1029;BME280;503;48.120;11.488;2022-07-05T03:51:28;95672.84;;;20.79;78.83
1029;BME280;503;48.120;11.488;2022-07-05T03:53:53;95671.56;;;20.73;78.90
1029;BME280;503;48.120;11.488;2022-07-05T03:56:19;95658.84;;;20.73;79.01
1029;BME280;503;48.120;11.488;2022-07-05T03:58:50;95665.53;;;20.80;78.84
1029;BME280;503;48.120;11.488;2022-07-05T04:01:16;95668.91;;;20.76;78.87
1029;BME280;503;48.120;11.488;2022-07-05T04:03:41;95671.28;;;20.78;78.99
1029;BME280;503;48.120;11.488;2022-07-05T04:06:10;95663.69;;;20.84;79.12
1029;BME280;503;48.120;11.488;2022-07-05T04:08:36;95672.91;;;20.83;79.08
1029;BME280;503;48.120;11.488;2022-07-05T04:11:01;95666.78;;;20.86;78.82
1029;BME280;503;48.120;11.488;2022-07-05T04:13:27;95651.84;;;20.72;78.70
1029;BME280;503;48.120;11.488;2022-07-05T04:15:52;95676.97;;;20.92;78.80
1029;BME280;503;48.120;11.488;2022-07-05T04:18:20;95677.44;;;20.98;78.85
1029;BME280;503;48.120;11.488;2022-07-05T04:20:45;95671.69;;;20.99;78.79
1029;BME280;503;48.120;11.488;2022-07-05T04:23:11;95669.53;;;21.09;78.80
1029;BME280;503;48.120;11.488;2022-07-05T04:25:36;95667.19;;;21.07;78.29
1029;BME280;503;48.120;11.488;2022-07-05T04:28:01;95670.53;;;21.20;78.29
1029;BME280;503;48.120;11.488;2022-07-05T04:30:27;95681.03;;;21.44;78.55
1029;BME280;503;48.120;11.488;2022-07-05T04:32:52;95674.41;;;21.65;78.41
1029;BME280;503;48.120;11.488;2022-07-05T04:35:18;95677.88;;;21.88;78.29
1029;BME280;503;48.120;11.488;2022-07-05T04:37:43;95688.44;;;22.20;78.21
1029;BME280;503;48.120;11.488;2022-07-05T04:40:11;95672.53;;;22.45;77.61
1029;BME280;503;48.120;11.488;2022-07-05T04:42:37;95679.94;;;22.78;77.03
1029;BME280;503;48.120;11.488;2022-07-05T04:45:03;95684.28;;;22.86;76.05
1029;BME280;503;48.120;11.488;2022-07-05T04:47:29;95683.47;;;22.82;75.68
1029;BME280;503;48.120;11.488;2022-07-05T04:49:55;95685.03;;;22.83;75.24
1029;BME280;503;48.120;11.488;2022-07-05T04:52:22;95687.75;;;22.83;75.19
1029;BME280;503;48.120;11.488;2022-07-05T04:54:47;95673.81;;;22.84;75.64
1029;BME280;503;48.120;11.488;2022-07-05T04:57:12;95678.50;;;22.88;75.35
1029;BME280;503;48.120;11.488;2022-07-05T04:59:38;95676.16;;;22.86;75.00
1029;BME280;503;48.120;11.488;2022-07-05T05:02:03;95670.94;;;22.70;74.81
1029;BME280;503;48.120;11.488;2022-07-05T05:04:29;95691.19;;;22.80;74.77
1029;BME280;503;48.120;11.488;2022-07-05T05:06:54;95681.41;;;22.72;74.70
1029;BME280;503;48.120;11.488;2022-07-05T05:09:20;95681.59;;;22.56;74.71
1029;BME280;503;48.120;11.488;2022-07-05T05:11:46;95675.84;;;22.61;75.21
1029;BME280;503;48.120;11.488;2022-07-05T05:14:11;95683.44;;;22.78;75.40
1029;BME280;503;48.120;11.488;2022-07-05T05:16:36;95660.59;;;22.79;75.04
1029;BME280;503;48.120;11.488;2022-07-05T05:19:02;95678.34;;;23.07;75.08
1029;BME280;503;48.120;11.488;2022-07-05T05:21:27;95678.91;;;23.23;74.33
1029;BME280;503;48.120;11.488;2022-07-05T05:23:52;95684.00;;;23.28;73.97
1029;BME280;503;48.120;11.488;2022-07-05T05:26:18;95664.59;;;23.26;73.70
1029;BME280;503;48.120;11.488;2022-07-05T05:28:43;95678.75;;;23.46;73.82
1029;BME280;503;48.120;11.488;2022-07-05T05:31:08;95669.03;;;23.04;71.20
1029;BME280;503;48.120;11.488;2022-07-05T05:33:34;95665.91;;;23.02;70.59
1029;BME280;503;48.120;11.488;2022-07-05T05:36:00;95673.63;;;23.38;73.39
1029;BME280;503;48.120;11.488;2022-07-05T05:38:26;95675.75;;;23.58;73.45
1029;BME280;503;48.120;11.488;2022-07-05T05:40:51;95687.81;;;23.61;73.04
1029;BME280;503;48.120;11.488;2022-07-05T05:43:17;95633.59;;;23.27;72.85
1029;BME280;503;48.120;11.488;2022-07-05T05:45:42;95667.50;;;22.73;71.36
1029;BME280;503;48.120;11.488;2022-07-05T05:48:08;95669.59;;;22.57;70.59
1029;BME280;503;48.120;11.488;2022-07-05T05:50:35;95660.84;;;21.88;73.93
1029;BME280;503;48.120;11.488;2022-07-05T05:53:02;95684.31;;;22.56;72.66
1029;BME280;503;48.120;11.488;2022-07-05T05:55:29;95669.56;;;22.87;74.31
1029;BME280;503;48.120;11.488;2022-07-05T05:57:54;95645.94;;;22.88;73.60
1029;BME280;503;48.120;11.488;2022-07-05T06:00:21;95642.13;;;22.89;73.88
1029;BME280;503;48.120;11.488;2022-07-05T06:02:47;95678.00;;;23.46;74.18
1029;BME280;503;48.120;11.488;2022-07-05T06:05:14;95684.34;;;23.60;73.14
1029;BME280;503;48.120;11.488;2022-07-05T06:07:52;95680.19;;;23.74;73.65
1029;BME280;503;48.120;11.488;2022-07-05T06:10:26;95699.47;;;23.61;72.50
1029;BME280;503;48.120;11.488;2022-07-05T06:12:53;95704.78;;;23.51;72.42
1029;BME280;503;48.120;11.488;2022-07-05T06:15:19;95691.88;;;23.78;73.59
1029;BME280;503;48.120;11.488;2022-07-05T06:17:45;95710.25;;;23.54;71.91
1029;BME280;503;48.120;11.488;2022-07-05T06:20:24;95709.78;;;22.48;71.74
1029;BME280;503;48.120;11.488;2022-07-05T06:22:51;95700.81;;;21.94;73.05
1029;BME280;503;48.120;11.488;2022-07-05T06:25:17;95698.59;;;21.31;74.68
1029;BME280;503;48.120;11.488;2022-07-05T06:27:46;95676.31;;;20.60;76.65
1029;BME280;503;48.120;11.488;2022-07-05T06:30:14;95680.88;;;20.95;77.37
1029;BME280;503;48.120;11.488;2022-07-05T06:32:43;95722.31;;;21.61;76.40
1029;BME280;503;48.120;11.488;2022-07-05T06:35:09;95716.88;;;21.84;74.64
1029;BME280;503;48.120;11.488;2022-07-05T06:37:48;95736.63;;;21.84;75.45
1029;BME280;503;48.120;11.488;2022-07-05T06:40:21;95732.47;;;21.90;76.63
1029;BME280;503;48.120;11.488;2022-07-05T06:42:47;95723.84;;;22.30;73.52
1029;BME280;503;48.120;11.488;2022-07-05T06:45:12;95727.22;;;22.80;72.87
1029;BME280;503;48.120;11.488;2022-07-05T06:47:37;95730.47;;;22.10;74.37
1029;BME280;503;48.120;11.488;2022-07-05T06:50:04;95728.44;;;22.53;74.31
1029;BME280;503;48.120;11.488;2022-07-05T06:52:30;95731.44;;;22.21;72.95
1029;BME280;503;48.120;11.488;2022-07-05T06:54:57;95733.38;;;22.77;70.37
1029;BME280;503;48.120;11.488;2022-07-05T06:57:23;95738.97;;;23.55;71.75
1029;BME280;503;48.120;11.488;2022-07-05T06:59:48;95738.19;;;22.57;70.44
1029;BME280;503;48.120;11.488;2022-07-05T07:02:14;95726.53;;;22.30;71.31
1029;BME280;503;48.120;11.488;2022-07-05T07:04:40;95735.19;;;22.40;70.19
1029;BME280;503;48.120;11.488;2022-07-05T07:07:05;95732.88;;;23.28;70.71
1029;BME280;503;48.120;11.488;2022-07-05T07:09:50;95749.59;;;22.44;71.40
1029;BME280;503;48.120;11.488;2022-07-05T07:12:15;95736.53;;;22.79;71.53
1029;BME280;503;48.120;11.488;2022-07-05T07:14:41;95741.72;;;22.35;68.86
1029;BME280;503;48.120;11.488;2022-07-05T07:17:06;95742.97;;;22.41;70.78
1029;BME280;503;48.120;11.488;2022-07-05T07:19:31;95740.09;;;23.17;70.90
1029;BME280;503;48.120;11.488;2022-07-05T07:21:57;95750.75;;;22.16;69.78
1029;BME280;503;48.120;11.488;2022-07-05T07:24:22;95743.56;;;22.27;68.27
1029;BME280;503;48.120;11.488;2022-07-05T07:26:48;95753.66;;;22.30;69.20
1029;BME280;503;48.120;11.488;2022-07-05T07:29:29;95754.94;;;21.91;72.22
1029;BME280;503;48.120;11.488;2022-07-05T07:31:55;95750.75;;;22.99;70.79
1029;BME280;503;48.120;11.488;2022-07-05T07:34:21;95756.72;;;23.12;69.47
1029;BME280;503;48.120;11.488;2022-07-05T07:36:47;95753.19;;;22.78;68.07
1029;BME280;503;48.120;11.488;2022-07-05T07:39:12;95754.47;;;23.18;65.38
1029;BME280;503;48.120;11.488;2022-07-05T07:41:38;95740.72;;;23.74;64.62
1029;BME280;503;48.120;11.488;2022-07-05T07:44:04;95753.69;;;23.51;65.60
1029;BME280;503;48.120;11.488;2022-07-05T07:46:29;95755.63;;;23.54;61.09
1029;BME280;503;48.120;11.488;2022-07-05T07:48:54;95774.56;;;22.56;63.03
1029;BME280;503;48.120;11.488;2022-07-05T07:51:19;95752.91;;;23.54;62.46
1029;BME280;503;48.120;11.488;2022-07-05T07:53:46;95761.56;;;22.96;63.02
1029;BME280;503;48.120;11.488;2022-07-05T07:56:11;95756.34;;;23.47;58.65
1029;BME280;503;48.120;11.488;2022-07-05T07:58:37;95746.47;;;24.06;60.18
1029;BME280;503;48.120;11.488;2022-07-05T08:01:02;95756.81;;;24.38;55.81
1029;BME280;503;48.120;11.488;2022-07-05T08:03:27;95740.13;;;23.92;57.23
1029;BME280;503;48.120;11.488;2022-07-05T08:05:54;95761.34;;;23.79;55.08
1029;BME280;503;48.120;11.488;2022-07-05T08:08:19;95762.88;;;23.39;53.62
1029;BME280;503;48.120;11.488;2022-07-05T08:10:44;95760.38;;;23.60;54.86
1029;BME280;503;48.120;11.488;2022-07-05T08:13:10;95756.41;;;23.54;50.18
1029;BME280;503;48.120;11.488;2022-07-05T08:15:35;95756.28;;;23.44;50.02
1029;BME280;503;48.120;11.488;2022-07-05T08:18:00;95765.16;;;23.37;52.04
1029;BME280;503;48.120;11.488;2022-07-05T08:20:44;95761.75;;;23.10;49.19
1029;BME280;503;48.120;11.488;2022-07-05T08:23:28;95768.22;;;23.66;48.30
1029;BME280;503;48.120;11.488;2022-07-05T08:25:53;95758.69;;;24.34;47.42
1029;BME280;503;48.120;11.488;2022-07-05T08:28:18;95754.97;;;24.05;48.41
1029;BME280;503;48.120;11.488;2022-07-05T08:30:44;95757.28;;;23.28;47.11
1029;BME280;503;48.120;11.488;2022-07-05T08:33:09;95771.31;;;23.68;46.99
1029;BME280;503;48.120;11.488;2022-07-05T08:35:34;95764.22;;;23.59;45.62
1029;BME280;503;48.120;11.488;2022-07-05T08:38:00;95768.41;;;24.31;44.78
1029;BME280;503;48.120;11.488;2022-07-05T08:40:26;95767.91;;;24.70;44.07
1029;BME280;503;48.120;11.488;2022-07-05T08:42:56;95765.91;;;24.12;41.42
1029;BME280;503;48.120;11.488;2022-07-05T08:45:25;95767.66;;;24.97;40.68
1029;BME280;503;48.120;11.488;2022-07-05T08:47:51;95779.06;;;25.20;41.42
1029;BME280;503;48.120;11.488;2022-07-05T08:50:18;95766.78;;;25.73;41.77
1029;BME280;503;48.120;11.488;2022-07-05T08:52:45;95763.66;;;25.60;39.13
1029;BME280;503;48.120;11.488;2022-07-05T08:55:11;95769.91;;;24.80;39.90
1029;BME280;503;48.120;11.488;2022-07-05T08:57:36;95770.94;;;24.58;41.20
1029;BME280;503;48.120;11.488;2022-07-05T09:00:02;95760.78;;;24.51;39.68
1029;BME280;503;48.120;11.488;2022-07-05T09:02:28;95779.16;;;24.69;40.28
1029;BME280;503;48.120;11.488;2022-07-05T09:04:55;95758.03;;;24.00;41.55
1029;BME280;503;48.120;11.488;2022-07-05T09:07:22;95774.44;;;25.28;41.35
1029;BME280;503;48.120;11.488;2022-07-05T09:09:51;95758.84;;;24.04;40.91
1029;BME280;503;48.120;11.488;2022-07-05T09:12:16;95755.25;;;24.37;40.63
1029;BME280;503;48.120;11.488;2022-07-05T09:14:42;95782.81;;;24.35;38.12
1029;BME280;503;48.120;11.488;2022-07-05T09:17:07;95763.22;;;24.63;38.05
1029;BME280;503;48.120;11.488;2022-07-05T09:19:33;95766.38;;;24.21;38.97
1029;BME280;503;48.120;11.488;2022-07-05T09:22:06;95780.47;;;24.89;36.23
1029;BME280;503;48.120;11.488;2022-07-05T09:24:42;95777.56;;;25.37;36.12
1029;BME280;503;48.120;11.488;2022-07-05T09:27:07;95778.09;;;24.84;36.92
1029;BME280;503;48.120;11.488;2022-07-05T09:29:33;95778.75;;;25.36;37.25
1029;BME280;503;48.120;11.488;2022-07-05T09:31:58;95760.59;;;26.61;35.05
1029;BME280;503;48.120;11.488;2022-07-05T09:34:23;95783.00;;;25.33;36.83
1029;BME280;503;48.120;11.488;2022-07-05T09:36:50;95770.72;;;25.93;37.52
1029;BME280;503;48.120;11.488;2022-07-05T09:39:33;95781.66;;;25.97;36.26
1029;BME280;503;48.120;11.488;2022-07-05T09:44:45;95786.50;;;25.30;37.28
1029;BME280;503;48.120;11.488;2022-07-05T09:47:13;95769.19;;;26.03;35.52
1029;BME280;503;48.120;11.488;2022-07-05T09:49:41;95769.09;;;25.74;36.03
1029;BME280;503;48.120;11.488;2022-07-05T09:52:07;95773.84;;;26.31;36.01
1029;BME280;503;48.120;11.488;2022-07-05T09:54:33;95777.25;;;25.63;36.33
1029;BME280;503;48.120;11.488;2022-07-05T09:56:58;95781.25;;;26.09;36.46
1029;BME280;503;48.120;11.488;2022-07-05T09:59:24;95784.00;;;26.55;36.32
1029;BME280;503;48.120;11.488;2022-07-05T10:01:50;95772.31;;;26.37;36.45
1029;BME280;503;48.120;11.488;2022-07-05T10:04:15;95772.31;;;26.19;35.42
1029;BME280;503;48.120;11.488;2022-07-05T10:06:41;95766.84;;;26.55;35.04
1029;BME280;503;48.120;11.488;2022-07-05T10:09:08;95773.78;;;26.91;35.00
1029;BME280;503;48.120;11.488;2022-07-05T10:11:41;95768.38;;;25.88;36.79
1029;BME280;503;48.120;11.488;2022-07-05T10:14:15;95781.16;;;25.66;35.89
1029;BME280;503;48.120;11.488;2022-07-05T10:16:45;95767.09;;;27.21;34.29
1029;BME280;503;48.120;11.488;2022-07-05T10:19:15;95762.41;;;27.98;32.84
1029;BME280;503;48.120;11.488;2022-07-05T10:21:43;95758.00;;;27.49;32.95
1029;BME280;503;48.120;11.488;2022-07-05T10:24:09;95768.72;;;27.88;32.39
1029;BME280;503;48.120;11.488;2022-07-05T10:26:35;95778.44;;;27.23;32.23
1029;BME280;503;48.120;11.488;2022-07-05T10:29:02;95785.19;;;26.47;34.34
1029;BME280;503;48.120;11.488;2022-07-05T10:31:28;95784.28;;;25.64;34.34
1029;BME280;503;48.120;11.488;2022-07-05T10:33:55;95744.13;;;25.44;34.70
1029;BME280;503;48.120;11.488;2022-07-05T10:36:21;95762.06;;;27.12;33.78
1029;BME280;503;48.120;11.488;2022-07-05T10:38:47;95765.91;;;27.29;32.94
1029;BME280;503;48.120;11.488;2022-07-05T10:41:14;95766.09;;;27.63;32.12
1029;BME280;503;48.120;11.488;2022-07-05T10:43:42;95745.25;;;27.28;32.37
1029;BME280;503;48.120;11.488;2022-07-05T10:46:08;95759.06;;;26.46;34.72
1029;BME280;503;48.120;11.488;2022-07-05T10:48:34;95769.22;;;26.42;34.14
1029;BME280;503;48.120;11.488;2022-07-05T10:58:33;95778.91;;;26.25;34.52
1029;BME280;503;48.120;11.488;2022-07-05T11:06:30;95787.88;;;26.01;33.26
1029;BME280;503;48.120;11.488;2022-07-05T11:11:29;95768.00;;;25.89;31.76
1029;BME280;503;48.120;11.488;2022-07-05T11:13:56;95769.59;;;26.12;31.96
1029;BME280;503;48.120;11.488;2022-07-05T11:16:26;95757.50;;;26.41;32.19
1029;BME280;503;48.120;11.488;2022-07-05T11:19:04;95753.22;;;26.58;31.59
1029;BME280;503;48.120;11.488;2022-07-05T11:21:30;95765.25;;;26.82;31.69
1029;BME280;503;48.120;11.488;2022-07-05T11:26:44;95765.97;;;25.58;32.55
1029;BME280;503;48.120;11.488;2022-07-05T11:32:08;95755.97;;;26.48;30.91
1029;BME280;503;48.120;11.488;2022-07-05T11:34:34;95754.75;;;26.34;29.55
1029;BME280;503;48.120;11.488;2022-07-05T11:37:22;95746.59;;;26.38;29.24
1029;BME280;503;48.120;11.488;2022-07-05T11:42:30;95750.09;;;26.67;30.17
1029;BME280;503;48.120;11.488;2022-07-05T11:44:56;95734.44;;;26.89;29.55
1029;BME280;503;48.120;11.488;2022-07-05T11:47:23;95748.16;;;27.66;28.80
1029;BME280;503;48.120;11.488;2022-07-05T11:49:58;95758.19;;;27.10;30.10
1029;BME280;503;48.120;11.488;2022-07-05T11:52:26;95754.38;;;26.68;30.37
1029;BME280;503;48.120;11.488;2022-07-05T11:54:52;95750.88;;;25.92;32.12
1029;BME280;503;48.120;11.488;2022-07-05T11:57:19;95740.34;;;26.19;31.39
1029;BME280;503;48.120;11.488;2022-07-05T11:59:45;95735.66;;;26.63;31.05
1029;BME280;503;48.120;11.488;2022-07-05T12:02:10;95734.50;;;26.60;30.53
1029;BME280;503;48.120;11.488;2022-07-05T12:04:36;95716.97;;;26.40;31.37
1029;BME280;503;48.120;11.488;2022-07-05T12:07:01;95698.66;;;25.73;31.94
1029;BME280;503;48.120;11.488;2022-07-05T12:09:29;95708.41;;;26.41;31.76
1029;BME280;503;48.120;11.488;2022-07-05T12:12:20;95728.31;;;27.51;30.95
1029;BME280;503;48.120;11.488;2022-07-05T12:15:04;95701.22;;;27.78;29.62
1029;BME280;503;48.120;11.488;2022-07-05T12:17:30;95689.16;;;26.99;30.83
1029;BME280;503;48.120;11.488;2022-07-05T12:19:55;95721.66;;;26.29;32.06
1029;BME280;503;48.120;11.488;2022-07-05T12:22:33;95734.06;;;26.83;30.29
1029;BME280;503;48.120;11.488;2022-07-05T12:25:00;95727.75;;;27.01;30.10
1029;BME280;503;48.120;11.488;2022-07-05T12:27:27;95730.47;;;27.01;29.68
1029;BME280;503;48.120;11.488;2022-07-05T12:29:55;95746.69;;;27.51;28.73
1029;BME280;503;48.120;11.488;2022-07-05T12:32:20;95723.66;;;28.07;28.98
1029;BME280;503;48.120;11.488;2022-07-05T12:34:46;95749.72;;;27.63;29.96
1029;BME280;503;48.120;11.488;2022-07-05T12:37:21;95742.94;;;29.17;29.20
1029;BME280;503;48.120;11.488;2022-07-05T12:39:48;95681.03;;;28.13;28.19
1029;BME280;503;48.120;11.488;2022-07-05T12:42:33;95743.31;;;29.19;27.15
1029;BME280;503;48.120;11.488;2022-07-05T12:45:15;95724.66;;;29.07;27.44
1029;BME280;503;48.120;11.488;2022-07-05T12:47:50;95756.69;;;28.31;25.85
1029;BME280;503;48.120;11.488;2022-07-05T12:50:16;95714.78;;;27.30;28.06
1029;BME280;503;48.120;11.488;2022-07-05T12:53:09;95715.50;;;27.44;28.40
1029;BME280;503;48.120;11.488;2022-07-05T12:56:04;95708.31;;;26.88;30.20
1029;BME280;503;48.120;11.488;2022-07-05T12:58:51;95727.88;;;26.33;30.83
1029;BME280;503;48.120;11.488;2022-07-05T13:01:30;95732.13;;;27.68;28.90
1029;BME280;503;48.120;11.488;2022-07-05T13:04:06;95755.72;;;28.03;26.74
1029;BME280;503;48.120;11.488;2022-07-05T13:06:48;95747.91;;;28.95;26.70
1029;BME280;503;48.120;11.488;2022-07-05T13:09:36;95751.84;;;28.01;28.38
1029;BME280;503;48.120;11.488;2022-07-05T13:12:15;95697.84;;;26.72;30.06
1029;BME280;503;48.120;11.488;2022-07-05T13:14:46;95700.63;;;26.43;31.14
1029;BME280;503;48.120;11.488;2022-07-05T13:17:13;95690.41;;;26.76;29.74
1029;BME280;503;48.120;11.488;2022-07-05T13:19:40;95729.56;;;28.06;28.71
1029;BME280;503;48.120;11.488;2022-07-05T13:22:06;95744.00;;;27.36;28.48
1029;BME280;503;48.120;11.488;2022-07-05T13:24:32;95712.16;;;27.82;27.07
1029;BME280;503;48.120;11.488;2022-07-05T13:26:58;95732.91;;;27.72;29.21
1029;BME280;503;48.120;11.488;2022-07-05T13:29:23;95690.13;;;27.44;28.77
1029;BME280;503;48.120;11.488;2022-07-05T13:31:49;95680.22;;;26.91;28.67
1029;BME280;503;48.120;11.488;2022-07-05T13:34:15;95741.03;;;26.99;29.15
1029;BME280;503;48.120;11.488;2022-07-05T13:36:40;95706.84;;;26.33;30.23
1029;BME280;503;48.120;11.488;2022-07-05T13:39:06;95678.44;;;25.99;30.13
1029;BME280;503;48.120;11.488;2022-07-05T13:41:31;95657.78;;;26.19;30.39
1029;BME280;503;48.120;11.488;2022-07-05T13:43:58;95674.91;;;26.23;30.34
1029;BME280;503;48.120;11.488;2022-07-05T13:46:24;95727.75;;;27.04;29.04
1029;BME280;503;48.120;11.488;2022-07-05T13:48:49;95716.38;;;27.24;28.41
1029;BME280;503;48.120;11.488;2022-07-05T13:51:14;95682.09;;;27.12;28.24